KLFK/LFK METAR and TAF weather

Enter ICAO airport designator
Station Type Date Time Source
KLFK METAR 2019/06/20 07:53 UTC NOAA

KLFK 200753Z AUTO 16006KT 10SM CLR 24/21 A2982 RMK AO2 RAE06 SLP093 P0000 T02440206


Station Type Date Time Source
KLFK Decoded METAR 2019/06/20 07:53 UTC NOAA

LUFKIN ANGELINA COUNTY AIRPORT , TX, United States (KLFK) 31-14N 94-45W 88M
Jun 20, 2019 - 03:53 AM EDT / 2019.06.20 0753 UTC
Wind: from the SSE (160 degrees) at 7 MPH (6 KT):0
Visibility: 10 mile(s):0
Sky conditions: clear
Precipitation last hour: A trace
Temperature: 75.9 F (24.4 C)
Dew Point: 69.1 F (20.6 C)
Relative Humidity: 79%
Pressure (altimeter): 29.82 in. Hg (1009 hPa)
ob: KLFK 200753Z AUTO 16006KT 10SM CLR 24/21 A2982 RMK AO2 RAE06 SLP093 P0000 T02440206
cycle: 8

Station Type Date Time Source
KLFK TAF 2019/06/20 06:45 UTC NOAA

TAF KLFK 200542Z 2006/2106 19010KT P6SM BKN250
FM200700 20010KT P6SM VCTS BKN040CB
TEMPO 2007/2011 VRB10G20KT 4SM TSRA BR OVC020CB
FM201200 21008KT P6SM SCT080 BKN150
FM201400 22010KT P6SM BKN015
FM201600 23012KT P6SM SCT035
FM210000 20007KT P6SM FEW250

Example: see airport list